• Join FlightAware (Why Join?)
  • Login
  • US Flag 
04:50AM EDT


 

Airport Tracker/Info


-or-


 

Live Flight TrackerFlight Track Log ✈ N201FR ✈ 29-Jul-2013 ✈ KSTL - MMUN / CUN

Flight Track Log - Related Links

Times and Time Zones

All times are in EDT time to prevent confusion due to time zone crossing. See the N201FR flight status page for this flight to view local times or setup timezone preferences in your user account.

Time Position Orientation Groundspeed Altitude Reporting Facility
EDT Latitude Longitude Course Direction KTS MPH feet Rate Location/Type
07:58AM 38.7167 -90.3167 165° South 169 194 2,300  Level Gateway (St. Louis) TRACON
07:59AM 38.6667 -90.3000 165° South 231 266 3,300 1,500 Climbing Gateway (St. Louis) TRACON
07:59AM 38.6358 -90.3236 211° Southwest 247 284 4,600 2,340 Climbing Kansas City Center
08:01AM 38.5761 -90.3550 202° Southwest 265 305 7,000 2,340 Climbing Kansas City Center
08:02AM 38.5031 -90.3933 202° Southwest 276 318 9,500 1,980 Climbing Kansas City Center
08:03AM 38.4267 -90.4347 203° Southwest 291 335 11,100 1,680 Climbing Kansas City Center
08:04AM 38.3372 -90.4814 202° Southwest 332 382 13,000 1,980 Climbing Kansas City Center
08:05AM 38.2442 -90.5292 202° Southwest 354 407 15,200 2,040 Climbing Kansas City Center
08:06AM 38.1244 -90.5636 193° South 375 432 17,200 1,620 Climbing Kansas City Center
08:07AM 38.0156 -90.5761 185° South 389 448 18,500 1,380 Climbing Kansas City Center
08:08AM 37.9053 -90.5881 185° South 395 455 20,100 1,320 Climbing Kansas City Center
08:09AM 37.7906 -90.6000 185° South 407 468 21,300 1,200 Climbing Kansas City Center
08:10AM 37.6739 -90.6131 185° South 417 480 22,600 1,140 Climbing Kansas City Center
08:11AM 37.5542 -90.6286 186° South 427 491 23,700 1,080 Climbing Kansas City Center
08:12AM 37.4308 -90.6422 185° South 440 506 24,900 1,020 Climbing Kansas City Center
08:13AM 37.2869 -90.6556 184° South 450 518 25,900 1,020 Climbing Kansas City Center
08:14AM 37.1642 -90.6217 168° South 461 531 27,100 900 Climbing Kansas City Center
08:15AM 37.0644 -90.5089 138° Southeast 477 549 27,800 600 Climbing Kansas City Center
08:16AM 36.9639 -90.3917 137° Southeast 487 560 28,400 600 Climbing Kansas City Center
08:17AM 36.8414 -90.3189 155° Southeast 487 560 29,100 720 Climbing Kansas City Center
08:18AM 36.7297 -90.3025 173° South 479 551 29,800 960 Climbing Memphis Center
08:19AM 36.5942 -90.2794 172° South 486 559 30,900 1,200 Climbing Memphis Center
08:20AM 36.4567 -90.2536 171° South 497 572 32,200 1,200 Climbing Memphis Center
08:21AM 36.3253 -90.2281 171° South 497 572 33,400 900 Climbing Memphis Center
08:22AM 36.1939 -90.2053 172° South 492 566 34,100 600 Climbing Memphis Center
08:23AM 36.0606 -90.1797 171° South 486 559 34,600 420 Climbing Memphis Center
08:24AM 35.9269 -90.1544 171° South 486 559 35,000 180 Climbing Memphis Center
08:25AM 35.7914 -90.1267 171° South 486 559 35,000  Level Memphis Center
08:26AM 35.6536 -90.0989 171° South 472 543 35,000  Level Memphis Center
08:27AM 35.5222 -90.0789 173° South 463 533 35,000  Level Memphis Center
08:28AM 35.3889 -90.0769 179° South 474 545 35,000  Level Memphis Center
08:29AM 35.2575 -90.0800 181° South 474 545 35,000  Level Memphis Center
08:30AM 35.1239 -90.0828 181° South 474 545 35,000  Level Memphis Center
08:31AM 34.9883 -90.0833 180° South 474 545 35,000  Level Memphis Center
08:32AM 34.8528 -90.0889 182° South 479 551 35,000  Level Memphis Center
08:33AM 34.7150 -90.0842 178° South 486 559 35,000  Level Memphis Center
08:34AM 34.5794 -90.0847 180° South 491 565 35,000  Level Memphis Center
08:35AM 34.4436 -90.0825 179° South 491 565 35,000  Level Memphis Center
08:36AM 34.3081 -90.0831 180° South 491 565 35,000  Level Memphis Center
08:37AM 34.1725 -90.0836 180° South 491 565 35,000  Level Memphis Center
08:38AM 34.0347 -90.0839 180° South 496 571 35,000  Level Memphis Center
08:40AM 33.7697 -90.0872 181° South 486 559 35,000  Level Memphis Center
08:41AM 33.6339 -90.0853 179° South 481 554 35,000  Level Memphis Center
08:42AM 33.4983 -90.0856 180° South 481 554 35,000  Level Memphis Center
08:43AM 33.3647 -90.0886 181° South 481 554 35,000  Level Memphis Center
08:44AM 33.2289 -90.0892 180° South 481 554 35,000  Level Memphis Center
08:45AM 33.0933 -90.0919 181° South 481 554 35,000  Level Memphis Center
08:46AM 32.9556 -90.0922 180° South 481 554 35,000  Level Memphis Center
08:47AM 32.8303 -90.0928 180° South 491 565 35,000  Level Memphis Center
08:48AM 32.6967 -90.0906 179° South 491 565 35,000  Level Memphis Center
08:49AM 32.5611 -90.0911 180° South 491 565 35,000  Level Memphis Center
08:50AM 32.4275 -90.0914 180° South 491 565 35,000  Level Memphis Center
08:51AM 32.2897 -90.0919 180° South 491 565 35,000  Level Memphis Center
08:52AM 32.1561 -90.0922 180° South 491 565 35,000  Level Memphis Center
08:53AM 32.0244 -90.0928 180° South 491 565 35,000  Level Memphis Center
08:55AM 31.7283 -90.0931 180° South 485 558 35,000  Level Houston Center
08:56AM 31.5944 -90.0942 180° South 482 555 35,000  Level Houston Center
08:57AM 31.4606 -90.0950 180° South 481 554 35,000 -60 Level Houston Center
08:58AM 31.3281 -90.0950 180° South 479 551 34,900 -60 Descending Houston Center
08:59AM 31.1956 -90.0794 174° South 478 550 34,900  Level Houston Center
09:00AM 31.0636 -90.0619 174° South 478 550 35,000  Climbing Houston Center
09:01AM 30.9050 -90.0425 174° South 479 551 35,000  Level Houston Center
09:02AM 30.7742 -90.0253 174° South 475 547 35,000  Level Houston Center
09:03AM 30.6436 -90.0089 174° South 473 544 35,000 -60 Level Houston Center
09:04AM 30.5133 -89.9936 174° South 472 543 34,900  Descending Houston Center
09:05AM 30.3828 -89.9786 174° South 478 550 35,000  Climbing Houston Center
09:06AM 30.2278 -89.9586 174° South 479 551 35,000 60 Level Houston Center
09:07AM 30.0983 -89.9419 174° South 474 545 35,200 300 Climbing Houston Center
09:08AM 29.9725 -89.9053 166° South 471 542 35,700 600 Climbing Houston Center
09:09AM 29.8494 -89.8542 160° South 468 539 36,500 540 Climbing Houston Center
09:10AM 29.7272 -89.7997 159° South 471 542 36,900 240 Climbing Houston Center
09:11AM 29.5806 -89.7369 160° South 471 542 37,000  Climbing Houston Center
09:12AM 29.4614 -89.6836 159° South 461 531 37,000 -60 Level Houston Center
09:13AM 29.3428 -89.6314 159° South 458 527 36,900  Descending Houston Center
09:14AM 29.2247 -89.5800 159° South 455 524 37,000  Climbing Houston Center
09:15AM 29.1061 -89.5267 159° South 457 526 37,000  Level Houston Center
09:16AM 28.9875 -89.4758 159° South 454 522 37,000  Level Houston Center
09:17AM 28.8444 -89.4131 159° South 458 527 37,000  Level Houston Center
09:18AM 28.7256 -89.3644 160° South 455 524 37,000 -60 Level Houston Center
09:20AM 28.6064 -89.3156 160° South 455 524 36,900  Descending Houston Center
09:21AM 28.4819 -89.2753 164° South 463 533 37,000  Climbing Houston Center
09:22AM 28.3569 -89.2442 168° South 462 532 37,000  Level Houston Center
09:23AM 28.2333 -89.2078 165° South 459 528 37,000  Level Houston Center
09:24AM 28.0850 -89.1675 167° South 457 526 37,000 -60 Level Houston Center
09:25AM 27.9619 -89.1333 166° South 456 525 36,900  Descending Houston Center
09:26AM 27.8381 -89.0986 166° South 458 527 37,000 60 Climbing Houston Center
09:28AM 27.6277 -89.0452 167° South  Level FlightAware Approximate
09:35AM 26.7939 -88.8357 167° South  Level FlightAware Approximate
09:36AM 26.6748 -88.8061 167° South  Level FlightAware Approximate
09:37AM 26.5550 -88.7753 166° South  Level FlightAware Approximate
09:38AM 26.4368 -88.7416 166° South  Level FlightAware Approximate
09:39AM 26.3185 -88.7080 166° South  Level FlightAware Approximate
09:40AM 26.2002 -88.6745 166° South  Level FlightAware Approximate
09:41AM 26.0819 -88.6410 166° South  Level FlightAware Approximate
09:42AM 25.9636 -88.6076 166° South  Level FlightAware Approximate
09:43AM 25.8453 -88.5743 166° South  Level FlightAware Approximate
09:44AM 25.7270 -88.5410 166° South  Level FlightAware Approximate
09:45AM 25.6087 -88.5078 166° South  Level FlightAware Approximate
09:46AM 25.4904 -88.4747 166° South  Level FlightAware Approximate
09:47AM 25.3720 -88.4416 166° South  Level FlightAware Approximate
09:48AM 25.2537 -88.4086 166° South  Level FlightAware Approximate
09:49AM 25.1354 -88.3757 166° South  Level FlightAware Approximate
09:50AM 25.0170 -88.3428 166° South  Level FlightAware Approximate
09:51AM 24.8986 -88.3100 166° South  Level FlightAware Approximate
09:52AM 24.7803 -88.2773 166° South  Level FlightAware Approximate
09:53AM 24.6619 -88.2446 166° South  Level FlightAware Approximate
09:54AM 24.5435 -88.2120 166° South  Level FlightAware Approximate
09:55AM 24.4267 -88.1733 162° South  Level FlightAware Approximate
09:56AM 24.3109 -88.1310 160° South  Level FlightAware Approximate
09:57AM 24.1962 -88.0853 160° South  Level FlightAware Approximate
09:58AM 24.0815 -88.0397 160° South  Level FlightAware Approximate
09:59AM 23.9668 -87.9941 160° South  Level FlightAware Approximate
10:00AM 23.8520 -87.9486 160° South  Level FlightAware Approximate
10:01AM 23.7373 -87.9032 160° South  Level FlightAware Approximate
10:02AM 23.6225 -87.8579 160° South  Level FlightAware Approximate
10:03AM 23.5077 -87.8126 160° South  Level FlightAware Approximate
10:04AM 23.3929 -87.7677 161° South  Level FlightAware Approximate
10:05AM 23.2778 -87.7235 161° South  Level FlightAware Approximate
10:06AM 23.1637 -87.6764 158° South  Level FlightAware Approximate
10:07AM 23.0504 -87.6273 161° South  Level FlightAware Approximate
10:08AM 22.9348 -87.5847 161° South  Level FlightAware Approximate
10:09AM 22.8192 -87.5421 161° South  Level FlightAware Approximate
10:10AM 22.7032 -87.5011 163° South  Level FlightAware Approximate
10:11AM 22.5927 -87.4473 161° South  Level FlightAware Approximate
10:12AM 22.4770 -87.4053 161° South  Level FlightAware Approximate
10:13AM 22.3615 -87.3626 161° South  Level FlightAware Approximate
10:14AM 22.2458 -87.3208 163° South  Level FlightAware Approximate
10:15AM 22.1300 -87.2794 160° South  Level FlightAware Approximate
10:16AM 22.0150 -87.2351 160° South  Level FlightAware Approximate
10:17AM 21.9001 -87.1909 160° South  Level FlightAware Approximate
10:18AM 21.7851 -87.1468 160° South  Level FlightAware Approximate
10:19AM 21.6690 -87.1063 163° South  Level FlightAware Approximate
10:20AM 21.5670 -87.0565 164° South  Level FlightAware Approximate
10:21AM 21.4497 -87.0204 164° South  Level FlightAware Approximate
10:22AM 21.3344 -86.9782 157° South  Level FlightAware Approximate
10:23AM 21.2214 -86.9286 160° South  Level FlightAware Approximate
10:24AM 21.1050 -86.8910 169° South  Level FlightAware Approximate
10:25AM 21.0365 -86.8771 270° West  Level Estimated
10:26AM 21.0365 -86.8771 270° West  Level Estimated
10:27AM 21.0365 -86.8771 270° West  Level Estimated
10:28AM 21.0365 -86.8771 270° West  Level Estimated
10:29AM 21.0365 -86.8771 270° West  Level Estimated
10:30AM 21.0365 -86.8771 270° West  Level Estimated
10:31AM 21.0365 -86.8771 270° West  Level Estimated
10:32AM 21.0365 -86.8771 270° West  Level Estimated
10:33AM 21.0365 -86.8771 270° West  Level Estimated
10:34AM 21.0365 -86.8771 270° West  Level Estimated
10:35AM 21.0365 -86.8771 270° West  Level Estimated
10:36AM 21.0365 -86.8771 270° West  Level Estimated
10:37AM 21.0365 -86.8771 270° West  Level Estimated
10:38AM 21.0365 -86.8771 270° West  Level Estimated
10:39AM 21.0365 -86.8771 270° West  Level Estimated
10:40AM 21.0365 -86.8771 270° West  Level Estimated
10:41AM 21.0365 -86.8771 270° West  Level Estimated
10:42AM 21.0365 -86.8771 270° West  Level Estimated
10:43AM 21.0365 -86.8771 270° West  Level Estimated
10:44AM 21.0365 -86.8771 270° West  Level Estimated
10:45AM 21.0365 -86.8771 270° West  Level Estimated
10:46AM 21.0365 -86.8771 270° West  Level Estimated